TAF Text Data
IDs:
Format:
Raw Decoded Include METAR

Data at: 1836 UTC 23 Oct 2018

METAR for:KAVL (Asheville Muni, NC, US)
Text:KAVL 231754Z 35008KT 10SM CLR 17/03 A3020 RMK AO2 SLP219 T01720028 10172 20044 58016
Temperature: 17.2°C ( 63°F)
Dewpoint: 2.8°C ( 37°F) [RH = 38%]
Pressure (altimeter):30.20 inches Hg (1022.8 mb) [Sea level pressure: 1021.9 mb]
Winds:from the N (350 degrees) at 9 MPH (8 knots; 4.1 m/s)
Visibility:10 or more sm (16+ km)
Ceiling:at least 12,000 feet AGL
Clouds:sky clear below 12,000 feet AGL

TAF for:KAVL (Asheville Muni, NC, US) issued at 1726 UTC 23 Oct 2018
Text:KAVL 231726Z 2318/2418 34009KT P6SM SCT250
Forecast period:1800 UTC 23 October 2018 to 1800 UTC 24 October 2018
Forecast type:FROM: standard forecast or significant change
Winds:from the NNW (340 degrees) at 10 MPH (9 knots; 4.6 m/s)
Visibility:6 or more sm (10+ km)
Ceiling:at least 12,000 feet AGL
Clouds: scattered clouds at 25000 feet AGL